Time;durP1;ratioP1;P1;durP2;ratioP2;P2;SDS_P1;SDS_P2;PMS_P1;PMS_P2;Temp;Humidity;BMP_temperature;BMP_pressure;BME280_temperature;BME280_humidity;BME280_pressure;Samples;Min_cycle;Max_cycle;Signal;HPM_P1;HPM_P2
2022/09/15 00:03:53;;;;;;;30.30;17.75;;;;;;;12.58;83.71;99406.78;10492597;28;20052;-81
2022/09/15 00:08:57;;;;;;;32.65;17.50;;;;;;;12.58;83.74;99403.25;10484442;28;20061;-81
2022/09/15 00:14:03;;;;;;;27.48;17.50;;;;;;;12.49;84.00;99407.75;10503957;28;20072;-79
2022/09/15 00:19:06;;;;;;;34.55;18.80;;;;;;;12.41;84.18;99402.34;10487283;28;20144;-81
2022/09/15 00:24:09;;;;;;;36.42;19.83;;;;;;;12.38;84.14;99410.72;10502870;28;20076;-82
2022/09/15 00:29:14;;;;;;;31.95;17.45;;;;;;;12.09;85.14;99416.41;10513093;28;20063;-78
2022/09/15 00:34:16;;;;;;;41.80;20.25;;;;;;;12.04;85.55;99411.50;10489801;28;20048;-81
2022/09/15 00:39:19;;;;;;;40.42;21.70;;;;;;;12.11;85.65;99417.94;10493457;28;20067;-81
2022/09/15 00:44:56;;;;;;;45.30;22.67;;;;;;;12.27;85.46;99417.19;10484514;28;20137;-80
2022/09/15 00:50:04;;;;;;;38.45;20.92;;;;;;;12.21;86.45;99412.47;10465324;28;20036;-81
2022/09/15 00:55:11;;;;;;;41.97;23.70;;;;;;;12.34;85.91;99403.97;10476500;28;20471;-79
2022/09/15 01:00:19;;;;;;;46.95;23.13;;;;;;;12.30;86.16;99410.69;10490601;28;20048;-81
2022/09/15 01:05:24;;;;;;;47.38;24.33;;;;;;;12.26;86.84;99406.56;10467766;28;20048;-81
2022/09/15 01:10:29;;;;;;;45.28;23.83;;;;;;;12.24;86.68;99403.22;10469934;28;20059;-79
2022/09/15 01:15:44;;;;;;;53.40;23.95;;;;;;;12.25;86.97;99404.91;10519625;28;20048;-81
2022/09/15 01:21:01;;;;;;;49.65;24.42;;;;;;;12.21;86.68;99409.75;10486905;28;20048;-82
2022/09/15 01:26:36;;;;;;;45.22;25.08;;;;;;;12.27;86.25;99402.91;10485036;28;20087;-82
2022/09/15 01:37:09;;;;;;;57.83;28.67;;;;;;;12.16;86.86;99407.53;10497516;28;20505;-81
2022/09/15 01:42:15;;;;;;;53.35;25.73;;;;;;;12.16;86.93;99414.78;10486482;28;20048;-83
2022/09/15 01:47:22;;;;;;;52.35;26.65;;;;;;;12.23;86.82;99415.84;10497362;28;20083;-82
2022/09/15 01:52:27;;;;;;;55.22;25.90;;;;;;;12.05;86.95;99417.72;10491814;28;20052;-82
2022/09/15 01:57:32;;;;;;;52.40;26.13;;;;;;;12.17;86.72;99411.91;10487189;28;20037;-82
2022/09/15 02:02:39;;;;;;;45.20;23.63;;;;;;;11.98;87.30;99422.03;10490177;28;20047;-82
2022/09/15 02:07:48;;;;;;;47.40;25.08;;;;;;;11.94;87.81;99416.13;10474290;28;20141;-82
2022/09/15 02:12:57;;;;;;;49.03;24.73;;;;;;;11.98;87.12;99411.28;10486876;22;20119;-80
2022/09/15 02:18:07;;;;;;;48.42;24.00;;;;;;;11.98;86.34;99412.13;10437000;28;20046;-80
2022/09/15 02:23:17;;;;;;;42.05;22.55;;;;;;;11.80;86.35;99412.16;10420373;28;20505;-80
2022/09/15 02:28:26;;;;;;;44.13;23.65;;;;;;;11.75;85.90;99411.78;10404275;28;20117;-80
2022/09/15 02:33:35;;;;;;;50.22;23.42;;;;;;;11.63;86.23;99408.50;10399492;28;20096;-79
2022/09/15 02:38:44;;;;;;;44.25;22.10;;;;;;;11.57;86.14;99401.03;10396081;28;20050;-78
2022/09/15 02:43:48;;;;;;;43.95;21.90;;;;;;;11.51;86.08;99393.56;10387293;28;20080;-77
2022/09/15 02:48:53;;;;;;;50.55;23.13;;;;;;;11.50;86.17;99392.75;10374927;28;20438;-80
2022/09/15 02:53:56;;;;;;;40.90;21.83;;;;;;;11.33;86.58;99392.75;10380149;28;20045;-79
2022/09/15 02:58:58;;;;;;;;;;;;;;;11.38;86.28;99399.38;10377857;28;20141;-79
2022/09/15 03:04:03;;;;;;;38.75;20.77;;;;;;;11.22;87.19;99394.66;10386029;28;19979;-79
2022/09/15 03:09:07;;;;;;;40.38;21.33;;;;;;;11.40;86.17;99401.88;10382283;28;20045;-78
2022/09/15 03:14:10;;;;;;;43.33;22.08;;;;;;;11.35;86.24;99396.13;10382354;28;20046;-79
2022/09/15 03:19:14;;;;;;;41.88;21.80;;;;;;;11.46;86.51;99402.13;10398965;28;20041;-80
2022/09/15 03:24:18;;;;;;;35.60;20.13;;;;;;;11.56;86.28;99409.25;10401087;28;20053;-79
2022/09/15 03:29:21;;;;;;;37.47;19.95;;;;;;;11.63;86.36;99404.97;10398681;28;20104;-79
2022/09/15 03:34:25;;;;;;;41.97;21.10;;;;;;;11.71;86.24;99405.00;10410861;28;20053;-79
2022/09/15 03:39:28;;;;;;;35.53;19.30;;;;;;;11.71;85.69;99413.06;10414990;28;20133;-79
2022/09/15 03:44:31;;;;;;;39.63;19.85;;;;;;;11.69;85.88;99420.47;10405971;28;20037;-80
2022/09/15 03:49:35;;;;;;;37.70;19.35;;;;;;;11.48;86.54;99418.94;10404873;28;20080;-80
2022/09/15 03:54:38;;;;;;;39.03;20.58;;;;;;;11.67;85.51;99427.84;10407497;28;20414;-80
2022/09/15 03:59:41;;;;;;;41.67;19.77;;;;;;;11.74;85.64;99420.88;10405463;28;20376;-79
2022/09/15 04:04:45;;;;;;;33.83;18.02;;;;;;;11.53;85.92;99421.16;10406220;28;20123;-80
2022/09/15 04:09:48;;;;;;;39.67;19.48;;;;;;;11.62;85.24;99411.31;10408828;28;20137;-80
2022/09/15 04:14:51;;;;;;;37.20;19.70;;;;;;;11.74;85.16;99410.09;10395525;28;20407;-80
2022/09/15 04:19:56;;;;;;;39.50;19.50;;;;;;;11.67;85.13;99412.56;10386922;28;20082;-79
2022/09/15 04:24:59;;;;;;;36.67;19.27;;;;;;;11.77;84.85;99411.63;10389837;28;20129;-79
2022/09/15 04:30:02;;;;;;;30.30;16.80;;;;;;;11.56;85.70;99415.47;10396263;28;20065;-79
2022/09/15 04:35:07;;;;;;;27.60;16.17;;;;;;;11.60;85.50;99421.38;10399977;28;20038;-79
2022/09/15 04:40:10;;;;;;;28.45;16.45;;;;;;;11.73;84.92;99432.59;10413064;28;20498;-79
2022/09/15 04:45:14;;;;;;;31.23;17.02;;;;;;;11.69;85.32;99423.16;10396533;28;20137;-79
2022/09/15 04:50:18;;;;;;;27.40;16.73;;;;;;;11.64;85.48;99418.25;10409598;28;20042;-79
2022/09/15 04:55:21;;;;;;;24.15;15.50;;;;;;;11.78;84.69;99424.06;10411640;28;20053;-79
2022/09/15 05:00:25;;;;;;;26.48;15.32;;;;;;;11.87;84.41;99425.81;10394807;28;20038;-79
2022/09/15 05:05:30;;;;;;;24.15;15.30;;;;;;;11.68;84.60;99416.94;10400828;28;20053;-79
2022/09/15 05:10:33;;;;;;;27.42;16.50;;;;;;;11.82;84.20;99423.63;10401264;28;20041;-79
2022/09/15 05:15:35;;;;;;;27.02;15.60;;;;;;;11.91;83.38;99424.53;10397205;28;20058;-79
2022/09/15 05:20:39;;;;;;;24.65;15.35;;;;;;;11.98;83.27;99430.13;10377249;28;20042;-79
2022/09/15 05:25:42;;;;;;;21.67;15.60;;;;;;;12.04;83.05;99433.03;10390618;28;20053;-79
2022/09/15 05:30:45;;;;;;;20.05;13.85;;;;;;;12.09;82.68;99425.31;10402272;28;20038;-79
2022/09/15 05:35:54;;;;;;;25.42;16.52;;;;;;;12.26;82.78;99431.69;10397198;28;20095;-79
2022/09/15 05:41:02;;;;;;;22.05;15.25;;;;;;;12.14;82.62;99435.63;10398487;28;20084;-79
2022/09/15 05:46:06;;;;;;;23.58;15.02;;;;;;;12.16;82.20;99431.75;10403670;28;20084;-78
2022/09/15 05:51:10;;;;;;;21.98;14.40;;;;;;;12.29;82.16;99439.47;10393589;28;20465;-79
2022/09/15 05:56:15;;;;;;;18.38;11.73;;;;;;;12.56;81.97;99433.06;10395021;28;20072;-79
2022/09/15 06:01:20;;;;;;;18.85;13.23;;;;;;;12.67;81.13;99434.63;10398771;28;20124;-80
2022/09/15 06:06:25;;;;;;;16.88;12.27;;;;;;;12.70;81.26;99438.84;10398359;28;20446;-79
2022/09/15 06:11:30;;;;;;;19.40;13.32;;;;;;;12.74;80.64;99449.13;10375584;28;20219;-78
2022/09/15 06:16:35;;;;;;;15.50;9.18;;;;;;;12.67;81.27;99448.09;10395137;28;20458;-78
2022/09/15 06:21:39;;;;;;;18.95;11.93;;;;;;;12.76;80.74;99457.91;10401050;28;20037;-80
2022/09/15 06:26:42;;;;;;;17.55;11.05;;;;;;;12.72;80.91;99461.91;10393851;28;20071;-80
2022/09/15 06:31:45;;;;;;;13.52;10.93;;;;;;;12.65;80.89;99463.59;10413507;28;20096;-78
2022/09/15 06:36:49;;;;;;;14.40;11.10;;;;;;;12.92;79.92;99454.44;10419810;28;20045;-80
2022/09/15 06:41:52;;;;;;;17.08;12.60;;;;;;;12.90;79.93;99461.84;10393768;28;20073;-78
2022/09/15 06:47:06;;;;;;;17.23;12.10;;;;;;;13.02;79.26;99463.22;10394141;28;20061;-80
2022/09/15 06:52:10;;;;;;;18.65;9.88;;;;;;;13.07;79.06;99468.16;10401858;28;20384;-79
2022/09/15 06:57:13;;;;;;;14.75;11.45;;;;;;;12.99;79.14;99463.56;10407047;28;20088;-78
2022/09/15 07:02:15;;;;;;;20.13;10.65;;;;;;;12.96;79.12;99471.97;10406466;28;20195;-79
2022/09/15 07:07:20;;;;;;;15.75;10.10;;;;;;;12.87;80.05;99472.13;10396725;28;20041;-78
2022/09/15 07:12:23;;;;;;;17.73;10.80;;;;;;;13.16;79.03;99483.34;10411421;28;20049;-80
2022/09/15 07:17:28;;;;;;;18.70;10.40;;;;;;;13.17;78.92;99484.19;10415759;28;20061;-79
2022/09/15 07:22:32;;;;;;;13.48;9.45;;;;;;;13.18;78.71;99483.19;10397170;28;20037;-78
2022/09/15 07:27:35;;;;;;;12.73;9.18;;;;;;;13.25;77.85;99485.06;10402676;28;20470;-78
2022/09/15 07:32:38;;;;;;;15.30;8.88;;;;;;;13.79;75.97;99479.28;10399904;28;20044;-77
2022/09/15 07:37:43;;;;;;;12.13;8.27;;;;;;;13.27;76.92;99491.16;10385087;28;20491;-80
2022/09/15 07:42:46;;;;;;;10.40;7.18;;;;;;;13.83;75.84;99485.22;10412511;28;20049;-79
2022/09/15 07:47:49;;;;;;;12.68;6.72;;;;;;;14.07;74.33;99485.25;10426272;28;20510;-79
2022/09/15 07:52:56;;;;;;;14.88;7.43;;;;;;;13.88;74.83;99493.66;10415259;28;20077;-79
2022/09/15 07:58:00;;;;;;;12.93;6.72;;;;;;;13.75;75.42;99504.94;10395365;28;20149;-79
2022/09/15 08:03:03;;;;;;;10.85;5.95;;;;;;;14.15;73.82;99496.03;10402384;28;20532;-79
2022/09/15 08:08:07;;;;;;;10.65;6.00;;;;;;;14.15;73.29;99517.66;10404016;28;20052;-80
2022/09/15 08:13:10;;;;;;;11.88;5.53;;;;;;;14.33;72.01;99517.47;10447137;22;20069;-79
2022/09/15 08:18:13;;;;;;;12.85;4.78;;;;;;;14.18;70.84;99521.88;10586317;28;20059;-81
2022/09/15 08:23:17;;;;;;;7.30;4.82;;;;;;;14.33;70.03;99525.56;10548405;28;20077;-79
2022/09/15 08:28:20;;;;;;;7.88;5.32;;;;;;;14.71;69.67;99533.16;10552424;28;20044;-79
2022/09/15 08:33:23;;;;;;;10.57;5.03;;;;;;;15.01;68.84;99532.41;10550157;28;20055;-79
2022/09/15 08:38:27;;;;;;;12.93;5.28;;;;;;;15.15;67.12;99524.59;10557750;28;20052;-78
2022/09/15 08:43:37;;;;;;;9.32;5.38;;;;;;;15.40;66.36;99533.47;10570866;28;20068;-79
2022/09/15 08:48:45;;;;;;;7.32;4.40;;;;;;;16.67;61.95;99544.78;10560161;28;20093;-79
2022/09/15 08:53:57;;;;;;;7.43;4.28;;;;;;;16.41;61.68;99534.34;10577978;28;20039;-80
2022/09/15 08:59:00;;;;;;;7.10;2.87;;;;;;;16.46;61.38;99543.63;10571446;28;20047;-80
2022/09/15 09:04:18;;;;;;;7.18;3.03;;;;;;;16.52;60.48;99545.59;10559276;28;20063;-81
2022/09/15 09:09:34;;;;;;;5.47;2.35;;;;;;;16.45;61.43;99544.63;10556891;28;20044;-80
2022/09/15 09:14:50;;;;;;;8.88;2.08;;;;;;;17.02;59.57;99538.63;10575080;28;20119;-81
2022/09/15 09:20:12;;;;;;;4.63;1.23;;;;;;;17.05;55.84;99534.72;10545398;28;20052;-81
2022/09/15 09:25:19;;;;;;;4.40;1.10;;;;;;;16.78;55.26;99530.75;10547108;28;20048;-80
2022/09/15 09:30:33;;;;;;;5.45;0.93;;;;;;;17.39;53.71;99530.63;10540656;28;20434;-80
2022/09/15 09:35:41;;;;;;;6.28;0.80;;;;;;;17.52;51.30;99529.91;10540680;28;20086;-80
2022/09/15 09:40:46;;;;;;;3.80;1.52;;;;;;;17.59;49.93;99526.25;10553297;28;20040;-79
2022/09/15 09:45:49;;;;;;;6.72;1.10;;;;;;;18.41;49.03;99516.88;10552134;28;20082;-80
2022/09/15 09:50:54;;;;;;;2.70;0.90;;;;;;;16.33;49.95;99541.53;10550226;28;20040;-80
2022/09/15 09:56:17;;;;;;;4.22;0.73;;;;;;;16.55;50.90;99522.69;10570312;28;20093;-80
2022/09/15 10:01:24;;;;;;;4.90;0.82;;;;;;;16.87;49.51;99526.13;10560481;28;20098;-81
2022/09/15 10:06:30;;;;;;;3.92;0.77;;;;;;;17.19;49.48;99516.75;10565812;28;20051;-79
2022/09/15 10:11:43;;;;;;;6.45;0.80;;;;;;;16.82;49.51;99534.81;10582306;28;20069;-79
2022/09/15 10:16:56;;;;;;;4.53;1.23;;;;;;;16.71;48.97;99519.00;10566287;28;20090;-80
2022/09/15 10:22:01;;;;;;;4.50;0.85;;;;;;;17.28;48.14;99510.22;10576210;28;20099;-80
2022/09/15 10:27:18;;;;;;;6.22;0.70;;;;;;;17.79;47.25;99503.91;10569200;28;20039;-80
2022/09/15 10:32:26;;;;;;;6.70;1.00;;;;;;;17.90;47.55;99509.66;10577812;28;20066;-80
2022/09/15 10:37:46;;;;;;;3.80;0.80;;;;;;;18.80;45.63;99516.34;10569538;28;20071;-80
2022/09/15 10:42:53;;;;;;;4.05;0.88;;;;;;;18.75;45.89;99497.03;10567655;28;20063;-80
2022/09/15 10:48:22;;;;;;;3.05;1.02;;;;;;;19.53;43.98;99494.13;10558023;28;20051;-80
2022/09/15 10:53:44;;;;;;;3.72;0.88;;;;;;;18.75;45.28;99499.75;10578150;28;20067;-81
2022/09/15 10:59:05;;;;;;;4.18;1.13;;;;;;;19.66;45.52;99501.50;10582105;28;20582;-81
2022/09/15 11:04:29;;;;;;;3.30;0.98;;;;;;;19.66;44.07;99494.19;10545158;28;20120;-81
2022/09/15 11:09:35;;;;;;;1.65;0.65;;;;;;;19.72;43.38;99510.72;10558744;28;20082;-79
2022/09/15 11:14:52;;;;;;;2.25;0.85;;;;;;;19.18;45.04;99491.44;10553379;28;20036;-82
2022/09/15 11:20:11;;;;;;;6.55;1.20;;;;;;;19.57;44.75;99497.28;10571704;28;20150;-82
2022/09/15 11:25:19;;;;;;;8.38;1.10;;;;;;;19.38;43.61;99505.16;10569684;28;20476;-82
2022/09/15 11:30:25;;;;;;;5.40;1.20;;;;;;;19.22;44.80;99506.31;10569425;28;20044;-82
2022/09/15 11:35:44;;;;;;;6.07;1.13;;;;;;;20.00;43.59;99516.91;10586445;28;20040;-82
2022/09/15 11:40:50;;;;;;;4.72;1.10;;;;;;;18.89;45.11;99514.31;10544488;28;20151;-81
2022/09/15 11:45:57;;;;;;;7.55;1.27;;;;;;;18.49;45.86;99515.91;10573423;28;20059;-81
2022/09/15 11:51:03;;;;;;;4.63;0.77;;;;;;;19.02;43.39;99513.56;10589084;28;20041;-81
2022/09/15 11:56:18;;;;;;;4.50;1.17;;;;;;;18.09;45.05;99512.81;10592415;28;20052;-81
2022/09/15 12:01:28;;;;;;;6.45;1.00;;;;;;;19.63;42.86;99513.63;10578718;28;20065;-81
2022/09/15 12:06:38;;;;;;;4.13;1.10;;;;;;;19.86;40.94;99498.84;10571110;28;20403;-80
2022/09/15 12:11:49;;;;;;;2.67;0.80;;;;;;;20.12;40.96;99509.78;10574356;28;20036;-79
2022/09/15 12:16:54;;;;;;;5.53;1.00;;;;;;;19.50;41.28;99510.88;10565453;28;20044;-80
2022/09/15 12:22:02;;;;;;;4.72;0.75;;;;;;;19.38;42.01;99504.31;10554275;28;20418;-79
2022/09/15 12:27:10;;;;;;;2.15;0.50;;;;;;;19.01;42.72;99495.56;10570114;28;20412;-80
2022/09/15 12:32:25;;;;;;;3.83;0.80;;;;;;;19.00;42.36;99502.03;10576996;28;20078;-80
2022/09/15 12:37:35;;;;;;;2.20;0.63;;;;;;;18.08;43.86;99500.28;10584600;28;20548;-80
2022/09/15 12:42:44;;;;;;;5.18;1.00;;;;;;;18.00;43.45;99500.41;10560656;28;20040;-79
2022/09/15 12:47:53;;;;;;;3.38;0.52;;;;;;;17.89;44.17;99501.72;10574319;28;20040;-80
2022/09/15 12:52:59;;;;;;;4.13;0.82;;;;;;;18.51;43.64;99500.19;10561913;28;20079;-80
2022/09/15 12:58:08;;;;;;;1.23;0.52;;;;;;;18.45;43.76;99498.28;10574104;28;20082;-80
2022/09/15 13:03:49;;;;;;;1.95;0.68;;;;;;;19.24;42.77;99498.81;10568798;28;20036;-80
2022/09/15 13:09:15;;;;;;;3.63;0.90;;;;;;;19.18;43.37;99488.72;10562918;28;20051;-80
2022/09/15 13:14:26;;;;;;;3.80;0.88;;;;;;;22.27;38.00;99481.59;10553214;28;20111;-80
2022/09/15 13:19:39;;;;;;;4.83;1.17;;;;;;;20.77;39.34;99490.06;10558243;28;20070;-81
2022/09/15 13:24:48;;;;;;;3.83;0.80;;;;;;;20.18;39.87;99499.91;10556061;28;20062;-80
2022/09/15 13:30:10;;;;;;;7.82;0.80;;;;;;;19.17;42.95;99497.94;10559592;28;20051;-80
2022/09/15 13:35:27;;;;;;;3.25;0.73;;;;;;;;;;10544955;28;20527;-81
2022/09/15 13:40:52;;;;;;;3.78;1.00;;;;;;;17.93;45.38;99492.13;10543635;28;20048;-80
2022/09/15 13:46:06;;;;;;;3.47;0.88;;;;;;;18.14;45.53;99518.50;10546349;28;20047;-80
2022/09/15 13:51:16;;;;;;;3.33;0.70;;;;;;;18.24;47.50;99508.16;10544428;28;20431;-80
2022/09/15 13:56:26;;;;;;;7.00;1.42;;;;;;;18.04;49.09;99501.69;10579775;28;20050;-81
2022/09/15 14:01:33;;;;;;;2.90;1.00;;;;;;;17.79;50.55;99496.59;10568685;28;20105;-80
2022/09/15 14:06:38;;;;;;;4.95;1.10;;;;;;;17.47;51.51;99504.19;10584435;28;20110;-80
2022/09/15 14:11:43;;;;;;;6.80;1.80;;;;;;;16.79;53.42;99513.47;10568964;28;20075;-80
2022/09/15 14:16:49;;;;;;;4.65;0.80;;;;;;;17.20;57.29;99503.03;10567869;22;20453;-77
2022/09/15 14:21:52;;;;;;;4.10;0.80;;;;;;;18.51;54.76;99489.31;10553748;28;20115;-77
2022/09/15 14:27:09;;;;;;;3.22;0.70;;;;;;;19.11;50.44;99492.44;10527786;28;20067;-78
2022/09/15 14:32:14;;;;;;;2.70;0.70;;;;;;;19.28;48.00;99493.81;10522793;28;20115;-77
2022/09/15 14:37:22;;;;;;;6.57;1.25;;;;;;;18.85;47.83;99482.28;10525996;28;20119;-78
2022/09/15 14:42:29;;;;;;;8.23;1.15;;;;;;;18.55;48.29;99479.75;10530412;28;20079;-77
2022/09/15 14:47:33;;;;;;;7.75;0.90;;;;;;;18.15;48.70;99484.84;10522612;28;20044;-77
2022/09/15 14:52:39;;;;;;;5.35;1.08;;;;;;;16.73;50.22;99489.78;10516652;28;20119;-77
2022/09/15 14:57:48;;;;;;;4.72;0.82;;;;;;;17.60;50.38;99505.38;10513168;28;20446;-77
2022/09/15 15:03:02;;;;;;;3.17;0.70;;;;;;;17.62;50.81;99508.75;10529141;28;20041;-77
2022/09/15 15:08:08;;;;;;;6.13;0.77;;;;;;;17.75;50.75;99502.63;10526329;28;20090;-76
2022/09/15 15:13:16;;;;;;;8.73;1.45;;;;;;;17.63;51.11;99505.81;10540564;28;20408;-78
2022/09/15 15:18:38;;;;;;;3.67;0.77;;;;;;;17.44;51.56;99503.72;10545334;28;20089;-78
2022/09/15 15:23:45;;;;;;;5.13;1.10;;;;;;;17.28;51.98;99512.94;10541451;28;20086;-76
2022/09/15 15:28:50;;;;;;;5.10;1.17;;;;;;;17.06;52.95;99528.28;10531318;28;20080;-77
2022/09/15 15:33:56;;;;;;;7.03;1.10;;;;;;;16.88;52.44;99509.63;10526616;28;20107;-77
2022/09/15 15:39:02;;;;;;;3.30;0.73;;;;;;;16.92;52.07;99519.09;10570911;28;20051;-77
2022/09/15 15:44:24;;;;;;;5.25;0.70;;;;;;;16.66;52.76;99516.81;10572017;28;20050;-77
2022/09/15 15:49:30;;;;;;;5.47;0.68;;;;;;;16.98;51.84;99521.06;10542717;28;20044;-78
2022/09/15 15:54:34;;;;;;;3.20;0.82;;;;;;;17.41;50.72;99507.66;10531608;28;20123;-78
2022/09/15 15:59:38;;;;;;;3.47;0.80;;;;;;;17.19;50.44;99509.47;10505418;28;20455;-79
2022/09/15 16:04:41;;;;;;;3.75;0.57;;;;;;;16.96;51.02;99503.28;10521729;28;20454;-78
2022/09/15 16:09:45;;;;;;;3.33;0.90;;;;;;;17.12;50.51;99513.09;10505963;28;20075;-77
2022/09/15 16:14:49;;;;;;;4.60;0.90;;;;;;;17.21;50.38;99506.56;10524965;28;20094;-77
2022/09/15 16:19:52;;;;;;;6.90;0.68;;;;;;;16.62;51.16;99515.53;10505379;28;20075;-76
2022/09/15 16:24:55;;;;;;;9.07;0.90;;;;;;;16.10;52.60;99514.41;10506678;28;20032;-77
2022/09/15 16:29:59;;;;;;;4.70;1.00;;;;;;;16.22;52.53;99514.81;10506616;28;20485;-78
2022/09/15 16:35:09;;;;;;;3.28;0.68;;;;;;;15.44;56.59;99538.38;10534687;28;20121;-77
2022/09/15 16:40:12;;;;;;;1.23;0.57;;;;;;;13.84;61.05;99532.78;10523180;28;20044;-77
2022/09/15 16:45:23;;;;;;;4.28;0.50;;;;;;;13.38;63.32;99545.81;10503319;28;20068;-79
2022/09/15 16:50:26;;;;;;;4.25;0.40;;;;;;;13.69;62.28;99544.25;10538121;28;20040;-78
2022/09/15 16:55:35;;;;;;;1.77;0.55;;;;;;;13.97;60.44;99541.25;10536891;28;20036;-80
2022/09/15 17:00:39;;;;;;;3.83;0.60;;;;;;;14.41;59.06;99543.66;10529573;28;20071;-79
2022/09/15 17:05:45;;;;;;;4.45;0.93;;;;;;;14.69;58.12;99559.50;10542492;28;20038;-79
2022/09/15 17:10:51;;;;;;;3.10;0.70;;;;;;;14.61;58.48;99560.34;10567626;28;20080;-79
2022/09/15 17:15:56;;;;;;;3.17;0.80;;;;;;;14.79;58.62;99573.69;10563692;28;20551;-79
2022/09/15 17:20:59;;;;;;;2.38;0.50;;;;;;;14.99;58.25;99566.88;10550780;28;20040;-79
2022/09/15 17:26:05;;;;;;;4.32;0.60;;;;;;;14.79;58.87;99581.81;10529821;28;20127;-77
2022/09/15 17:31:14;;;;;;;2.58;0.60;;;;;;;14.74;59.17;99587.72;10540860;28;20057;-79
2022/09/15 17:36:18;;;;;;;3.55;0.70;;;;;;;14.91;58.63;99585.00;10541325;28;20079;-79
2022/09/15 17:41:21;;;;;;;1.67;0.43;;;;;;;14.67;59.06;99585.84;10536316;28;20070;-79
2022/09/15 17:46:25;;;;;;;2.53;0.50;;;;;;;14.38;59.61;99581.78;10540532;28;20044;-80
2022/09/15 17:51:28;;;;;;;2.40;0.70;;;;;;;14.70;58.95;99572.00;10541977;28;20055;-78
2022/09/15 17:56:31;;;;;;;1.02;0.55;;;;;;;14.61;58.87;99573.88;10539309;28;20032;-79
2022/09/15 18:01:35;;;;;;;2.80;0.50;;;;;;;14.07;60.86;99566.25;10546395;28;20047;-79
2022/09/15 18:06:38;;;;;;;2.55;0.60;;;;;;;13.78;61.35;99580.19;10504584;28;20465;-79
2022/09/15 18:11:47;;;;;;;3.13;0.90;;;;;;;13.64;61.45;99584.38;10506055;28;20497;-79
2022/09/15 18:16:51;;;;;;;1.92;0.60;;;;;;;13.85;60.84;99592.03;10522143;28;20048;-79
2022/09/15 18:21:54;;;;;;;1.75;0.57;;;;;;;13.81;61.08;99596.03;10513552;28;20132;-79
2022/09/15 18:26:57;;;;;;;0.93;0.50;;;;;;;13.94;60.22;99601.81;10520057;28;20048;-81
2022/09/15 18:32:02;;;;;;;1.00;0.30;;;;;;;13.42;60.68;99615.47;10528637;28;20108;-78
2022/09/15 18:37:04;;;;;;;4.10;0.43;;;;;;;13.67;60.03;99616.41;10506116;28;20052;-78
2022/09/15 18:42:08;;;;;;;0.57;0.50;;;;;;;13.70;59.81;99628.75;10525407;28;20048;-79
2022/09/15 18:47:13;;;;;;;2.00;0.50;;;;;;;13.83;59.30;99623.72;10530733;28;20072;-78
2022/09/15 18:52:16;;;;;;;2.67;0.40;;;;;;;13.78;59.57;99615.28;10535746;28;20044;-78
2022/09/15 18:57:18;;;;;;;2.22;0.60;;;;;;;13.80;59.86;99625.91;10541898;28;20067;-79
2022/09/15 19:02:23;;;;;;;1.33;0.40;;;;;;;13.86;59.51;99619.84;10535666;28;20413;-78
2022/09/15 19:07:26;;;;;;;1.80;0.95;;;;;;;13.88;59.67;99624.09;10536733;28;20054;-78
2022/09/15 19:12:30;;;;;;;2.03;0.50;;;;;;;13.79;60.25;99630.44;10533845;28;20090;-78
2022/09/15 19:17:34;;;;;;;1.73;0.50;;;;;;;13.38;60.90;99627.56;10524203;28;20057;-77
2022/09/15 19:22:38;;;;;;;1.00;0.50;;;;;;;13.47;61.08;99621.22;10520443;28;20505;-78
2022/09/15 19:27:41;;;;;;;2.70;0.60;;;;;;;13.55;61.27;99620.44;10529204;28;20090;-77
2022/09/15 19:32:46;;;;;;;1.80;0.88;;;;;;;13.32;62.36;99630.88;10521998;28;20052;-79
2022/09/15 19:37:48;;;;;;;2.33;0.65;;;;;;;13.27;62.37;99634.09;10536306;28;20089;-78
2022/09/15 19:42:51;;;;;;;3.95;0.70;;;;;;;13.01;63.26;99636.78;10546817;28;20123;-78
2022/09/15 19:47:55;;;;;;;2.70;0.82;;;;;;;13.38;62.41;99627.56;10541780;28;20082;-79
2022/09/15 19:52:59;;;;;;;1.30;0.50;;;;;;;13.25;62.76;99649.56;10533327;28;20040;-80
2022/09/15 19:58:03;;;;;;;4.60;1.60;;;;;;;13.10;63.18;99640.38;10557072;28;20036;-80
2022/09/15 20:03:08;;;;;;;2.90;0.88;;;;;;;13.10;63.47;99645.75;10557485;28;20063;-77
2022/09/15 20:08:11;;;;;;;2.13;0.80;;;;;;;13.17;63.19;99644.13;10568814;28;20044;-78
2022/09/15 20:13:15;;;;;;;3.03;0.90;;;;;;;13.02;64.31;99643.00;10536405;28;20070;-78
2022/09/15 20:18:19;;;;;;;2.97;0.82;;;;;;;13.04;64.55;99652.63;10544311;28;20045;-77
2022/09/15 20:23:23;;;;;;;4.22;1.45;;;;;;;12.88;65.02;99657.91;10541186;28;20127;-80
2022/09/15 20:28:27;;;;;;;2.83;0.82;;;;;;;12.52;65.53;99649.03;10544164;28;20040;-80
2022/09/15 20:33:32;;;;;;;3.67;1.00;;;;;;;12.72;65.56;99666.69;10537887;28;20044;-79
2022/09/15 20:38:36;;;;;;;7.28;1.50;;;;;;;12.83;65.88;99666.47;10531961;28;20040;-79
2022/09/15 20:43:40;;;;;;;5.90;1.10;;;;;;;12.24;68.12;99667.06;10539686;28;20048;-79
2022/09/15 20:48:45;;;;;;;5.07;1.35;;;;;;;12.31;67.76;99669.03;10544055;28;20044;-80
2022/09/15 20:53:50;;;;;;;4.38;0.80;;;;;;;12.17;68.44;99669.50;10536999;28;20062;-79
2022/09/15 20:58:54;;;;;;;3.40;1.20;;;;;;;12.00;68.90;99673.88;10535341;28;20280;-80
2022/09/15 21:03:58;;;;;;;4.50;0.80;;;;;;;12.25;67.88;99674.16;10529234;28;20044;-80
2022/09/15 21:09:01;;;;;;;6.03;1.10;;;;;;;12.39;67.64;99674.47;10505368;28;20098;-80
2022/09/15 21:14:04;;;;;;;2.20;0.70;;;;;;;12.17;68.51;99678.44;10533539;28;20090;-79
2022/09/15 21:19:11;;;;;;;6.35;0.90;;;;;;;11.94;69.58;99677.19;10536205;28;20043;-78
2022/09/15 21:24:13;;;;;;;4.30;0.52;;;;;;;11.94;68.99;99685.25;10537575;28;20492;-80
2022/09/15 21:29:16;;;;;;;3.60;1.13;;;;;;;11.98;69.19;99675.03;10543724;28;20417;-79
2022/09/15 21:34:21;;;;;;;3.63;1.38;;;;;;;11.81;69.67;99682.06;10531946;28;20064;-79
2022/09/15 21:39:24;;;;;;;3.60;0.90;;;;;;;12.04;68.65;99677.09;10503857;28;20710;-80
2022/09/15 21:44:27;;;;;;;6.88;0.65;;;;;;;11.83;69.25;99680.91;10513484;28;20071;-79
2022/09/15 21:49:32;;;;;;;2.72;0.65;;;;;;;11.53;70.60;99689.28;10529537;28;20094;-79
2022/09/15 21:54:35;;;;;;;6.40;0.90;;;;;;;11.82;69.50;99690.00;10520916;28;20040;-79
2022/09/15 21:59:38;;;;;;;2.17;0.65;;;;;;;11.58;70.43;99695.91;10522501;28;20048;-79
2022/09/15 22:04:42;;;;;;;4.60;0.90;;;;;;;11.54;70.41;99694.50;10556686;28;20105;-78
2022/09/15 22:09:46;;;;;;;2.85;1.08;;;;;;;11.70;69.93;99691.16;10518016;28;20059;-78
2022/09/15 22:14:49;;;;;;;2.92;0.90;;;;;;;11.42;70.86;99687.63;10513403;28;20048;-79
2022/09/15 22:19:53;;;;;;;1.52;0.57;;;;;;;11.35;70.71;99691.88;10530973;28;20044;-80
2022/09/15 22:24:56;;;;;;;5.13;0.90;;;;;;;11.48;70.52;99695.94;10514749;28;20090;-78
2022/09/15 22:29:59;;;;;;;2.97;0.88;;;;;;;11.22;71.40;99693.03;10507448;28;20096;-79
2022/09/15 22:35:04;;;;;;;7.03;1.17;;;;;;;11.04;72.04;99686.69;10521426;28;20059;-79
2022/09/15 22:40:08;;;;;;;6.00;1.20;;;;;;;11.15;71.50;99701.84;10519329;28;20135;-80
2022/09/15 22:45:11;;;;;;;3.97;0.80;;;;;;;11.19;71.27;99700.53;10514813;28;20051;-78
2022/09/15 22:50:15;;;;;;;4.47;1.20;;;;;;;11.34;70.41;99693.72;10514108;28;20041;-78
2022/09/15 22:55:18;;;;;;;2.85;1.70;;;;;;;11.17;70.97;99694.47;10533124;28;20043;-79
2022/09/15 23:00:22;;;;;;;3.15;0.90;;;;;;;11.36;70.46;99698.97;10517007;28;20076;-80
2022/09/15 23:05:26;;;;;;;2.30;0.63;;;;;;;10.82;72.31;99703.97;10517670;28;20048;-79
2022/09/15 23:10:29;;;;;;;2.92;0.98;;;;;;;11.11;70.93;99703.06;10519129;28;20044;-78
2022/09/15 23:15:34;;;;;;;2.75;1.10;;;;;;;11.04;71.41;99702.81;10518774;28;20097;-80
2022/09/15 23:20:38;;;;;;;6.45;1.00;;;;;;;11.01;71.64;99701.25;10528424;28;20052;-79
2022/09/15 23:25:41;;;;;;;6.00;1.20;;;;;;;11.08;71.02;99689.91;10545877;28;20048;-79
2022/09/15 23:30:44;;;;;;;;;;;;;;;11.12;71.24;99686.84;10527110;28;20090;-79
2022/09/15 23:35:48;;;;;;;3.33;0.93;;;;;;;11.19;71.23;99689.78;10530968;28;19924;-79
2022/09/15 23:40:51;;;;;;;8.30;0.98;;;;;;;11.15;71.67;99686.53;10531382;28;20075;-80
2022/09/15 23:45:53;;;;;;;1.60;1.08;;;;;;;11.18;72.16;99686.25;10516871;28;20047;-79